Latest Weather Observations for Wynyard

IDT60801

Issued at 8:01 am EDT Friday 12 February 2016 (issued every 30 minutes, with the page automatically refreshed every 10 minutes)

About weather observations | Map of weather stations | Latest weather observations for TAS | Other Formats
Station Details ID: 091107 Name: WYNYARD AIRPORT Lat: -41.00 Lon: 145.73 Height: 12.0 m
Data from the previous 72 hours. | See also: Recent months at Wynyard
Date/Time
EDT
Temp
°C
App
Temp
°C
Dew
Point
Rel
Hum
%
Delta-T
°C
Wind Press
QNH
hPa
Press
MSL
hPa
Rain
since 9 am
mm
Dir
 
Spd
km/h
Gust
km/h
Spd
kts
Gust
kts
12/08:00am 17.4 17.6 14.1 81 1.9 SW 6 7 3 4 1016.5 1016.5 0.0
12/07:30am 15.7 15.7 13.7 88 1.1 WSW 6 9 3 5 1016.4 1016.4 0.0
12/07:00am 13.8 13.2 12.4 91 0.8 W 7 9 4 5 1016.1 1016.1 0.0
12/06:30am 13.1 12.4 11.3 89 1.0 S 6 9 3 5 1015.7 1015.7 0.0
12/06:00am 14.1 13.3 11.8 86 1.2 SSE 7 11 4 6 1015.8 1015.8 0.0
12/05:30am 15.2 14.0 12.7 85 1.4 S 11 13 6 7 1015.7 1015.7 0.0
12/05:00am 15.1 13.4 12.6 85 1.4 SSE 13 17 7 9 1015.8 1015.8 0.0
12/04:30am 15.7 14.1 12.8 83 1.6 SSE 13 17 7 9 1015.8 1015.8 0.0
12/04:00am 15.7 13.7 12.6 82 1.7 SSE 15 19 8 10 1015.9 1015.9 0.0
12/03:30am 15.2 13.5 12.3 83 1.6 SE 13 17 7 9 1016.1 1016.1 0.0
12/03:00am 15.5 13.8 12.4 82 1.7 SE 13 17 7 9 1016.3 1016.3 0.0
12/02:30am 15.8 13.7 12.5 81 1.8 SE 15 17 8 9 1016.5 1016.5 0.0
12/02:00am 16.1 14.0 12.5 79 2.0 SE 15 19 8 10 1016.5 1016.5 0.0
12/01:30am 16.4 14.0 12.6 78 2.1 SE 17 22 9 12 1016.6 1016.6 0.0
12/01:00am 16.2 13.6 12.0 76 2.3 SSE 17 22 9 12 1016.7 1016.7 0.0
12/12:30am 16.5 13.2 11.6 73 2.7 SSE 20 24 11 13 1016.7 1016.7 0.0
12/12:00am 16.0 14.2 11.0 72 2.7 S 11 13 6 7 1017.0 1016.9 0.0
 
Date/Time
EDT
Temp
°C
App
Temp
°C
Dew
Point
Rel
Hum
%
Delta-T
°C
Wind Press
QNH
hPa
Press
MSL
hPa
Rain
since 9 am
mm
Dir
 
Spd
km/h
Gust
km/h
Spd
kts
Gust
kts
11/11:30pm 16.8 14.5 10.6 67 3.3 SSW 13 17 7 9 1017.2 1017.1 0.0
11/11:00pm 17.1 14.6 10.9 67 3.3 SSW 15 19 8 10 1017.2 1017.1 0.0
11/10:30pm 16.1 14.1 11.5 74 2.5 SSW 13 17 7 9 1017.0 1016.9 0.0
11/10:00pm 16.1 14.5 11.5 74 2.5 SSE 11 13 6 7 1016.6 1016.6 0.0
11/09:30pm 17.4 16.3 12.1 71 2.9 SSW 9 11 5 6 1016.2 1016.2 0.0
11/09:00pm 17.9 16.8 12.1 69 3.2 SE 9 13 5 7 1015.7 1015.7 0.0
11/08:30pm 18.6 17.7 12.6 68 3.4 ESE 9 15 5 8 1015.5 1015.5 0.0
11/08:00pm 19.4 17.8 12.7 65 3.8 ESE 13 17 7 9 1015.0 1015.0 0.0
11/07:30pm 20.4 18.2 12.1 59 4.6 ESE 15 19 8 10 1014.8 1014.8 0.0
11/07:00pm 20.9 19.6 12.6 59 4.7 E 11 17 6 9 1014.6 1014.6 0.0
11/06:30pm 21.3 20.0 12.4 57 5.0 E 11 17 6 9 1014.4 1014.4 0.0
11/06:00pm 21.5 20.4 14.2 63 4.3 NE 13 17 7 9 1014.2 1014.2 0.0
11/05:30pm 22.1 21.1 14.7 63 4.4 NE 13 17 7 9 1014.1 1014.1 0.0
11/05:00pm 23.3 21.5 10.7 45 7.0 NNE 11 19 6 10 1014.2 1014.2 0.0
11/04:30pm 23.8 21.3 9.8 41 7.6 NE 13 19 7 10 1014.2 1014.2 0.0
11/04:00pm 23.7 21.1 7.8 36 8.4 N 11 19 6 10 1014.3 1014.3 0.0
11/03:30pm 24.0 21.2 9.9 41 7.7 NNE 15 20 8 11 1014.5 1014.5 0.0
11/03:00pm 23.0 19.3 9.4 42 7.3 N 19 20 10 11 1014.8 1014.8 0.0
11/02:30pm 22.4 18.9 10.2 46 6.7 NNE 19 24 10 13 1015.1 1015.1 0.0
11/02:00pm 22.3 19.1 9.8 45 6.8 NNE 17 22 9 12 1015.3 1015.3 0.0
11/01:30pm 22.0 19.0 10.5 48 6.3 NNE 17 24 9 13 1015.4 1015.4 0.0
11/01:00pm 21.9 18.5 10.4 48 6.3 NE 19 22 10 12 1015.2 1015.2 0.0
11/12:30pm 22.1 18.7 10.6 48 6.3 NE 19 26 10 14 1015.5 1015.5 0.0
11/12:00pm 22.4 18.7 10.2 46 6.7 NE 20 26 11 14 1015.5 1015.5 0.0
11/11:30am 21.9 18.2 10.1 47 6.4 NE 20 24 11 13 1015.7 1015.7 0.0
11/11:00am 22.5 20.5 10.0 45 6.8 SE 11 19 6 10 1015.8 1015.8 0.0
11/10:30am 21.9 20.1 9.4 45 6.7 SSE 9 19 5 10 1016.1 1016.1 0.0
11/10:00am 20.4 17.6 8.7 47 6.1 SSW 13 20 7 11 1015.9 1015.9 0.0
11/09:30am 19.8 16.9 9.7 52 5.4 SSW 15 20 8 11 1015.9 1015.9 0.0
11/09:00am 18.2 15.8 10.1 59 4.3 SW 13 17 7 9 1015.9 1015.9 0.0
11/08:30am 16.2 13.4 11.2 72 2.7 W 17 20 9 11 1015.8 1015.8 0.0
11/08:00am 14.6 12.2 11.4 81 1.7 W 15 17 8 9 1015.7 1015.7 0.0
11/07:30am 12.9 10.8 11.0 88 1.0 W 13 17 7 9 1015.3 1015.3 0.0
11/07:00am 11.0 8.6 10.1 94 0.5 SW 13 15 7 8 1015.3 1015.3 0.0
11/06:30am 9.6 7.5 8.4 92 0.6 WSW 9 11 5 6 1015.3 1015.3 0.0
11/06:00am 10.6 8.8 9.4 92 0.6 WSW 9 9 5 5 1014.9 1014.9 0.0
11/05:30am 10.4 8.8 8.8 90 0.8 W 7 9 4 5 1014.7 1014.7 0.0
11/05:00am 11.7 10.7 10.3 91 0.7 WNW 6 7 3 4 1014.4 1014.4 0.0
11/04:30am 11.3 8.8 9.7 90 0.8 W 13 15 7 8 1014.2 1014.2 0.0
11/04:00am 11.3 9.6 10.0 92 0.7 W 9 13 5 7 1014.1 1014.1 0.0
11/03:30am 11.2 9.9 9.8 91 0.7 WSW 7 9 4 5 1014.0 1014.0 0.0
11/03:00am 11.7 9.7 10.1 90 0.8 W 11 11 6 6 1014.3 1014.3 0.0
11/02:30am 11.7 10.1 10.1 90 0.8 W 9 11 5 6 1014.6 1014.6 0.0
11/02:00am 12.1 10.2 10.5 90 0.8 W 11 13 6 7 1014.7 1014.7 0.0
11/01:30am 11.8 9.9 10.4 91 0.7 WSW 11 13 6 7 1014.6 1014.6 0.0
11/01:00am 11.7 10.0 9.8 88 1.0 WSW 9 11 5 6 1014.7 1014.7 0.0
11/12:30am 14.3 13.3 11.1 81 1.7 SW 7 9 4 5 1014.6 1014.6 0.0
11/12:00am 13.1 10.8 10.5 84 1.4 WSW 13 15 7 8 1014.3 1014.3 0.0
 
Date/Time
EDT
Temp
°C
App
Temp
°C
Dew
Point
Rel
Hum
%
Delta-T
°C
Wind Press
QNH
hPa
Press
MSL
hPa
Rain
since 9 am
mm
Dir
 
Spd
km/h
Gust
km/h
Spd
kts
Gust
kts
10/11:30pm 14.8 12.9 10.6 76 2.2 WSW 11 15 6 8 1014.2 1014.2 0.0
10/11:00pm 16.5 12.8 11.4 72 2.8 SW 22 32 12 17 1014.4 1014.4 0.0
10/10:30pm 15.8 13.3 11.0 73 2.6 WSW 15 22 8 12 1014.2 1014.2 0.0
10/10:00pm 16.2 13.3 10.9 71 2.8 WSW 17 24 9 13 1014.2 1014.2 0.0
10/09:30pm 16.4 14.2 10.7 69 3.0 WSW 13 17 7 9 1013.9 1013.9 0.0
10/09:00pm 17.6 14.1 10.9 65 3.6 WSW 20 30 11 16 1013.5 1013.5 0.0
10/08:30pm 18.0 14.1 10.9 63 3.8 WSW 22 30 12 16 1013.3 1013.3 0.0
10/08:00pm 18.6 15.8 11.4 63 3.9 SSW 17 26 9 14 1013.0 1013.0 0.0
10/07:30pm 19.9 16.7 11.1 57 4.8 SW 19 28 10 15 1012.6 1012.6 0.0
10/07:00pm 20.4 15.7 10.5 53 5.4 WSW 26 37 14 20 1012.1 1012.1 0.0
10/06:30pm 21.6 16.7 10.1 48 6.2 WSW 26 33 14 18 1011.6 1011.6 0.0
10/06:00pm 22.0 16.9 10.5 48 6.3 W 28 39 15 21 1011.2 1011.2 0.0
10/05:30pm 22.7 16.7 10.2 45 6.8 WSW 32 41 17 22 1010.9 1010.9 0.0
10/05:00pm 23.2 17.5 9.9 43 7.3 W 30 43 16 23 1010.8 1010.8 0.0
10/04:30pm 23.6 18.3 9.9 42 7.5 WNW 28 39 15 21 1010.6 1010.6 0.0
10/04:00pm 23.9 18.1 9.5 40 7.8 WNW 30 37 16 20 1010.8 1010.8 0.0
10/03:30pm 25.5 20.2 9.7 37 8.7 WSW 28 41 15 22 1011.0 1011.0 0.0
10/03:00pm 25.6 19.7 10.6 39 8.4 W 32 41 17 22 1011.1 1011.1 0.0
10/02:30pm 25.7 21.2 11.5 41 8.1 W 26 37 14 20 1011.4 1011.4 0.0
10/02:00pm 25.7 21.8 12.2 43 7.8 WSW 24 39 13 21 1011.5 1011.5 0.0
10/01:30pm 25.5 20.9 10.9 40 8.2 WSW 26 41 14 22 1011.6 1011.6 0.0
10/01:00pm 24.9 20.7 11.1 42 7.8 WSW 24 41 13 22 1012.0 1012.0 0.0
10/12:30pm 23.7 20.3 11.1 45 7.0 WSW 20 33 11 18 1012.6 1012.6 0.0
10/12:00pm 23.5 20.5 11.9 48 6.6 W 19 28 10 15 1012.9 1012.9 0.0
10/11:30am 21.8 18.2 10.6 49 6.1 WSW 20 32 11 17 1013.2 1013.2 0.0
10/11:00am 21.4 17.9 10.9 51 5.8 SW 20 28 11 15 1013.5 1013.5 0.0
10/10:30am 20.7 17.3 11.1 54 5.3 SW 20 32 11 17 1013.7 1013.7 0.0
10/10:00am 20.3 17.5 11.2 56 5.0 SW 17 30 9 16 1013.6 1013.6 0.0
10/09:30am 18.8 16.5 10.4 58 4.5 SW 13 19 7 10 1013.7 1013.7 0.0
10/09:00am 17.2 14.9 10.6 65 3.5 SW 13 20 7 11 1013.8 1013.8 0.0
10/08:30am 15.3 13.7 11.5 78 2.0 W 11 17 6 9 1013.7 1013.7 0.0
10/08:00am 13.7 11.6 11.0 84 1.4 WNW 13 13 7 7 1013.4 1013.4 0.0
10/07:30am 12.4 10.1 10.6 89 0.9 WNW 13 17 7 9 1013.4 1013.4 0.0
10/07:00am 11.8 9.9 10.5 92 0.7 WNW 11 15 6 8 1013.2 1013.2 0.0
10/06:30am 10.9 8.8 9.7 92 0.6 W 11 13 6 7 1013.2 1013.2 0.0
10/06:00am 12.0 9.4 10.7 92 0.7 WNW 15 15 8 8 1013.1 1013.1 0.0
10/05:30am 12.3 9.9 11.4 94 0.5 WNW 15 17 8 9 1013.1 1013.1 0.0
10/05:00am 10.6 8.5 9.7 94 0.5 W 11 13 6 7 1013.2 1013.2 0.0
10/04:30am 11.4 9.5 10.5 94 0.5 W 11 11 6 6 1013.4 1013.4 0.0
10/04:00am 11.2 10.0 10.3 94 0.5 WSW 7 9 4 5 1013.7 1013.7 0.0
10/03:30am 12.0 10.7 11.1 94 0.5 W 9 11 5 6 1013.7 1013.7 0.0
10/03:00am 12.3 10.6 11.2 93 0.6 WNW 11 13 6 7 1013.9 1013.9 0.0
10/02:30am 12.2 12.6 11.1 93 0.6 CALM 0 0 0 0 1014.1 1014.1 0.0
10/02:00am 12.0 11.0 10.9 93 0.6 WSW 7 9 4 5 1014.3 1014.3 0.0
10/01:30am 12.6 11.3 11.3 92 0.7 WSW 9 9 5 5 1014.6 1014.6 0.0
10/01:00am 13.3 12.6 11.4 88 1.0 WSW 6 7 3 4 1015.1 1015.1 0.0
10/12:30am 14.6 14.9 12.3 86 1.3 SW 2 7 1 4 1015.3 1015.3 0.0
10/12:00am 15.8 16.8 13.1 84 1.5 CALM 0 0 0 0 1015.5 1015.5 0.0
 
Date/Time
EDT
Temp
°C
App
Temp
°C
Dew
Point
Rel
Hum
%
Delta-T
°C
Wind Press
QNH
hPa
Press
MSL
hPa
Rain
since 9 am
mm
Dir
 
Spd
km/h
Gust
km/h
Spd
kts
Gust
kts
09/11:30pm 16.2 16.3 13.9 86 1.3 SSW 6 7 3 4 1015.6 1015.6 0.0
09/11:00pm 16.8 16.2 14.6 87 1.3 SSW 11 17 6 9 1015.7 1015.7 0.0
09/10:30pm 16.5 16.9 14.7 89 1.0 SSW 6 9 3 5 1016.1 1016.1 0.0
09/10:00pm 16.6 17.3 14.6 88 1.1 SSW 4 11 2 6 1016.4 1016.4 0.0
09/09:30pm 16.8 18.3 14.6 87 1.3 CALM 0 0 0 0 1016.3 1016.3 0.0
09/09:00pm 17.6 19.2 14.9 84 1.6 CALM 0 0 0 0 1016.3 1016.3 0.0
09/08:30pm 18.9 19.3 15.2 79 2.2 NNW 7 7 4 4 1016.4 1016.4 0.0
09/08:00pm 19.0 19.5 15.5 80 2.1 NNE 7 9 4 5 1016.5 1016.5 0.0
09/07:30pm 19.5 19.6 15.6 78 2.3 NE 9 13 5 7 1016.5 1016.5 0.0
09/07:00pm 19.9 19.9 15.3 75 2.7 NE 9 13 5 7 1016.5 1016.5 0.0
09/06:30pm 20.0 20.1 15.6 76 2.6 NE 9 13 5 7 1016.5 1016.5 0.0
09/06:00pm 20.1 20.2 15.5 75 2.7 ENE 9 13 5 7 1017.1 1017.0 0.0
09/05:30pm 20.1 19.7 15.3 74 2.8 NNE 11 17 6 9 1017.3 1017.2 0.0
09/05:00pm 21.1 20.4 15.4 70 3.4 NE 13 19 7 10 1017.4 1017.3 0.0
09/04:30pm 21.7 20.5 16.0 70 3.4 NE 17 22 9 12 1017.6 1017.5 0.0
09/04:00pm 21.4 19.6 15.9 71 3.3 ENE 20 26 11 14 1017.9 1017.8 0.0
09/03:30pm 22.0 20.9 16.3 70 3.5 ENE 17 24 9 13 1018.2 1018.1 0.0
09/03:00pm 22.2 20.6 16.0 68 3.7 ENE 19 24 10 13 1018.6 1018.5 0.0
09/02:30pm 21.8 20.2 15.9 69 3.5 NE 19 26 10 14 1019.1 1019.0 0.0
09/02:00pm 22.4 21.2 16.0 67 3.9 ENE 17 24 9 13 1019.5 1019.4 0.0
09/01:30pm 22.0 20.7 15.8 68 3.7 ENE 17 28 9 15 1019.7 1019.6 0.0
09/01:00pm 22.1 20.3 16.1 69 3.6 ENE 20 26 11 14 1019.8 1019.7 0.0
09/12:30pm 22.7 20.4 15.8 65 4.2 E 22 32 12 17 1020.0 1019.9 0.0
09/12:00pm 22.5 20.3 14.9 62 4.5 E 20 32 11 17 1020.3 1020.2 0.0
09/11:30am 22.8 20.5 15.6 64 4.3 E 22 32 12 17 1020.4 1020.3 0.0
09/11:00am 22.0 19.9 15.1 65 4.1 ESE 20 32 11 17 1020.5 1020.4 0.0
09/10:30am 21.5 19.0 15.1 67 3.8 ESE 22 30 12 16 1020.8 1020.7 0.0
09/10:00am 22.3 20.3 15.4 65 4.1 E 20 32 11 17 1020.6 1020.5 0.0
09/09:30am 21.1 19.1 15.0 68 3.6 ESE 19 32 10 17 1020.8 1020.7 0.0
09/09:00am 20.3 18.6 12.5 61 4.4 SE 13 19 7 10 1020.8 1020.7 0.0
09/08:30am 20.6 19.0 12.8 61 4.4 SSE 13 20 7 11 1020.7 1020.6 0.0

Other Formats:

Comma delimited format used in spreadsheet applications
http://www.bom.gov.au/fwo/IDT60801/IDT60801.95957.axf

JavaScript Object Notation format (JSON) in row-major order
http://www.bom.gov.au/fwo/IDT60801/IDT60801.95957.json